createdAt,value
2023-05-22T00:01:05.208Z,98049.88
2023-05-22T00:02:10.064Z,98049.88
2023-05-22T00:03:11.705Z,98051.50
2023-05-22T00:04:13.436Z,98051.31
2023-05-22T00:05:15.391Z,98046.78
2023-05-22T00:06:22.396Z,98048.34
2023-05-22T00:07:24.318Z,98051.16
2023-05-22T00:08:29.945Z,98052.06
2023-05-22T00:09:31.555Z,98047.69
2023-05-22T00:10:33.047Z,98043.50
2023-05-22T00:11:37.571Z,98049.53
2023-05-22T00:12:39.292Z,98039.13
2023-05-22T00:13:44.136Z,98041.09
2023-05-22T00:14:47.681Z,98040.28
2023-05-22T00:15:49.300Z,98037.34
2023-05-22T00:16:53.473Z,98043.09
2023-05-22T00:17:55.236Z,98037.78
2023-05-22T00:18:57.694Z,98034.34
2023-05-22T00:20:08.221Z,98032.28
2023-05-22T00:21:10.429Z,98029.75
2023-05-22T00:22:12.228Z,98034.69
2023-05-22T00:23:15.746Z,98030.31
2023-05-22T00:24:17.513Z,98027.75
2023-05-22T00:25:21.441Z,98026.00
2023-05-22T00:26:24.096Z,98023.06
2023-05-22T00:27:26.801Z,98026.13
2023-05-22T00:28:29.193Z,98020.66
2023-05-22T00:29:33.844Z,98027.00
2023-05-22T00:30:37.153Z,98027.00
2023-05-22T00:31:38.786Z,98020.81
2023-05-22T00:32:40.385Z,98023.59
2023-05-22T00:33:43.479Z,98020.88
2023-05-22T00:34:47.995Z,98019.69
2023-05-22T00:35:49.639Z,98021.00
2023-05-22T00:36:51.247Z,98019.16
2023-05-22T00:37:52.883Z,98024.34
2023-05-22T00:38:54.439Z,98020.06
2023-05-22T00:39:56.047Z,98021.75
2023-05-22T00:40:57.820Z,98024.13
2023-05-22T00:42:08.913Z,98019.63
2023-05-22T00:43:10.909Z,98021.34
2023-05-22T00:44:15.695Z,98021.66
2023-05-22T00:45:17.338Z,98027.31
2023-05-22T00:46:23.013Z,98029.63
2023-05-22T00:47:27.729Z,98022.50
2023-05-22T00:48:29.298Z,98019.56
2023-05-22T00:49:30.914Z,98023.56
2023-05-22T00:50:39.137Z,98019.91
2023-05-22T00:51:40.929Z,98021.78
2023-05-22T00:52:53.031Z,98029.72
2023-05-22T00:53:54.700Z,98021.94
2023-05-22T00:54:56.399Z,98020.59
2023-05-22T00:55:59.181Z,98020.25
2023-05-22T00:57:04.382Z,98019.91
2023-05-22T00:58:07.821Z,98020.09
2023-05-22T00:59:11.466Z,98020.72
2023-05-22T01:00:17.166Z,98013.66
2023-05-22T01:01:18.993Z,98020.88
2023-05-22T01:02:22.925Z,98020.91
2023-05-22T01:03:27.407Z,98018.72
2023-05-22T01:04:32.680Z,98026.03
2023-05-22T01:05:37.859Z,98020.84
2023-05-22T01:06:41.365Z,98019.63
2023-05-22T01:07:43.016Z,98025.66
2023-05-22T01:08:44.755Z,98027.75
2023-05-22T01:09:46.656Z,98029.94
2023-05-22T01:10:56.975Z,98028.38
2023-05-22T01:12:26.755Z,98032.97
2023-05-22T01:13:49.851Z,98027.34
2023-05-22T01:15:24.017Z,98026.66
2023-05-22T01:16:48.459Z,98031.78
2023-05-22T01:18:12.509Z,98021.69
2023-05-22T01:19:54.270Z,98029.94
2023-05-22T01:21:39.353Z,98030.56
2023-05-22T01:23:02.797Z,98025.03
2023-05-22T01:24:22.112Z,98027.25
2023-05-22T01:26:17.483Z,98023.25
2023-05-22T01:27:37.358Z,98027.97
2023-05-22T01:28:58.195Z,98031.84
2023-05-22T01:30:14.720Z,98031.91
2023-05-22T01:31:21.091Z,98032.16
2023-05-22T01:32:26.604Z,98036.38
2023-05-22T01:33:36.032Z,98026.88
2023-05-22T01:34:45.068Z,98032.22
2023-05-22T01:35:48.109Z,98028.72
2023-05-22T01:36:53.295Z,98031.78
2023-05-22T01:37:56.088Z,98036.63
2023-05-22T01:39:03.720Z,98034.72
2023-05-22T01:40:07.666Z,98031.56
2023-05-22T01:41:09.429Z,98024.56
2023-05-22T01:42:11.015Z,98026.34
2023-05-22T01:43:14.784Z,98025.97
2023-05-22T01:44:18.606Z,98028.81
2023-05-22T01:45:21.232Z,98027.97
2023-05-22T01:46:27.130Z,98023.22
2023-05-22T01:47:28.909Z,98028.19
2023-05-22T01:48:30.550Z,98024.06
2023-05-22T01:49:34.850Z,98028.31
2023-05-22T01:50:37.867Z,98026.88
2023-05-22T01:51:42.505Z,98026.88
2023-05-22T01:52:59.769Z,98023.22
2023-05-22T01:54:11.655Z,98027.00
2023-05-22T01:55:20.362Z,98022.88
2023-05-22T01:56:34.771Z,98025.03
2023-05-22T01:58:02.981Z,98021.78
2023-05-22T01:59:31.000Z,98022.38
2023-05-22T02:00:33.579Z,98024.41
2023-05-22T02:01:37.896Z,98022.59
2023-05-22T02:02:43.770Z,98031.00
2023-05-22T02:03:47.763Z,98022.22
2023-05-22T02:04:55.768Z,98027.28
2023-05-22T02:06:01.796Z,98025.53
2023-05-22T02:07:04.049Z,98028.06
2023-05-22T02:08:09.010Z,98027.25
2023-05-22T02:09:11.433Z,98023.41
2023-05-22T02:10:14.281Z,98034.88
2023-05-22T02:11:16.693Z,98020.47
2023-05-22T02:12:19.259Z,98025.47
2023-05-22T02:13:21.689Z,98025.41
2023-05-22T02:14:23.851Z,98025.16
2023-05-22T02:15:25.421Z,98026.72
2023-05-22T02:16:28.859Z,98026.00
2023-05-22T02:17:30.459Z,98025.53
2023-05-22T02:18:32.162Z,98021.81
2023-05-22T02:19:36.017Z,98026.31
2023-05-22T02:20:37.881Z,98020.19
2023-05-22T02:21:39.632Z,98025.13
2023-05-22T02:22:43.753Z,98021.41
2023-05-22T02:23:45.307Z,98025.03
2023-05-22T02:24:48.523Z,98022.06
2023-05-22T02:25:50.187Z,98022.06
2023-05-22T02:26:51.811Z,98019.25
2023-05-22T02:27:53.312Z,98024.50
2023-05-22T02:28:55.069Z,98021.78
2023-05-22T02:29:56.540Z,98025.94
2023-05-22T02:30:58.062Z,98024.47
2023-05-22T02:31:59.566Z,98024.09
2023-05-22T02:33:05.794Z,98026.31
2023-05-22T02:34:07.352Z,98025.91
2023-05-22T02:35:09.858Z,98019.91
2023-05-22T02:36:15.343Z,98016.63
2023-05-22T02:37:16.952Z,98020.56
2023-05-22T02:38:18.641Z,98016.78
2023-05-22T02:39:20.125Z,98016.78
2023-05-22T02:40:21.637Z,98016.50
2023-05-22T02:41:23.216Z,98015.00
2023-05-22T02:42:24.837Z,98013.41
2023-05-22T02:43:26.385Z,98015.03
2023-05-22T02:44:28.040Z,98007.25
2023-05-22T02:45:29.778Z,98006.91
2023-05-22T02:46:31.280Z,98014.16
2023-05-22T02:47:32.851Z,98008.81
2023-05-22T02:48:34.356Z,98012.56
2023-05-22T02:49:35.897Z,98015.78
2023-05-22T02:50:37.604Z,98013.06
2023-05-22T02:51:39.380Z,98013.94
2023-05-22T02:52:40.861Z,98008.53
2023-05-22T02:53:42.376Z,98016.19
2023-05-22T02:54:44.387Z,98016.91
2023-05-22T02:55:46.110Z,98014.56
2023-05-22T02:56:47.697Z,98009.00
2023-05-22T02:57:49.218Z,98011.69
2023-05-22T02:58:50.802Z,98011.22
2023-05-22T02:59:52.703Z,98011.00
2023-05-22T03:00:54.449Z,98011.75
2023-05-22T03:01:55.998Z,98016.63
2023-05-22T03:02:57.600Z,98014.00
2023-05-22T03:03:59.180Z,98013.75
2023-05-22T03:05:00.756Z,98015.97
2023-05-22T03:06:04.298Z,98007.00
2023-05-22T03:07:07.228Z,98017.25
2023-05-22T03:08:08.938Z,98013.09
2023-05-22T03:09:10.546Z,98011.88
2023-05-22T03:10:12.037Z,98011.84
2023-05-22T03:11:13.527Z,98013.84
2023-05-22T03:12:15.016Z,98011.63
2023-05-22T03:13:16.973Z,98023.38
2023-05-22T03:14:18.448Z,98019.16
2023-05-22T03:15:20.456Z,98015.75
2023-05-22T03:16:22.097Z,98019.53
2023-05-22T03:17:23.648Z,98017.59
2023-05-22T03:18:27.466Z,98015.75
2023-05-22T03:19:29.576Z,98016.13
2023-05-22T03:20:31.386Z,98017.22
2023-05-22T03:21:32.868Z,98016.88
2023-05-22T03:22:34.684Z,98016.88
2023-05-22T03:23:36.192Z,98019.13
2023-05-22T03:24:37.665Z,98017.97
2023-05-22T03:25:39.502Z,98015.28
2023-05-22T03:26:41.886Z,98016.22
2023-05-22T03:27:44.528Z,98014.72
2023-05-22T03:28:46.063Z,98021.91
2023-05-22T03:29:47.607Z,98016.59
2023-05-22T03:30:49.185Z,98024.50
2023-05-22T03:31:50.786Z,98020.28
2023-05-22T03:32:53.251Z,98024.00
2023-05-22T03:33:54.991Z,98023.19
2023-05-22T03:34:56.482Z,98027.00
2023-05-22T03:35:59.823Z,98021.72
2023-05-22T03:37:01.363Z,98020.63
2023-05-22T03:38:05.228Z,98020.66
2023-05-22T03:39:06.903Z,98029.06
2023-05-22T03:40:08.858Z,98020.38
2023-05-22T03:41:10.356Z,98024.38
2023-05-22T03:42:13.797Z,98022.75
2023-05-22T03:43:15.448Z,98028.44
2023-05-22T03:44:16.976Z,98023.44
2023-05-22T03:45:18.536Z,98021.53
2023-05-22T03:46:20.299Z,98018.88
2023-05-22T03:47:21.954Z,98022.81
2023-05-22T03:48:23.477Z,98014.88
2023-05-22T03:49:24.974Z,98019.53
2023-05-22T03:50:26.462Z,98018.41
2023-05-22T03:51:27.979Z,98022.66
2023-05-22T03:52:29.473Z,98026.84
2023-05-22T03:53:30.952Z,98025.34
2023-05-22T03:54:32.554Z,98026.19
2023-05-22T03:55:34.559Z,98025.88
2023-05-22T03:56:36.362Z,98024.78
2023-05-22T03:57:37.932Z,98018.31
2023-05-22T03:58:39.479Z,98023.97
2023-05-22T03:59:41.010Z,98021.28
2023-05-22T04:00:42.614Z,98025.41
2023-05-22T04:01:46.550Z,98034.38
2023-05-22T04:02:50.794Z,98023.41
2023-05-22T04:03:55.025Z,98030.94
2023-05-22T04:04:56.565Z,98029.13
2023-05-22T04:05:58.644Z,98024.94
2023-05-22T04:07:00.155Z,98029.44
2023-05-22T04:08:01.676Z,98026.47
2023-05-22T04:09:03.267Z,98026.53
2023-05-22T04:10:05.341Z,98034.22
2023-05-22T04:11:06.872Z,98039.25
2023-05-22T04:12:09.007Z,98033.13
2023-05-22T04:13:10.726Z,98034.25
2023-05-22T04:14:12.811Z,98038.84
2023-05-22T04:15:14.314Z,98038.34
2023-05-22T04:16:17.483Z,98040.72
2023-05-22T04:17:19.506Z,98038.34
2023-05-22T04:18:21.097Z,98041.38
2023-05-22T04:19:22.784Z,98039.56
2023-05-22T04:20:24.493Z,98044.91
2023-05-22T04:21:26.473Z,98045.34
2023-05-22T04:22:31.177Z,98047.44
2023-05-22T04:23:32.832Z,98045.53
2023-05-22T04:24:34.839Z,98046.78
2023-05-22T04:25:36.658Z,98044.75
2023-05-22T04:26:40.984Z,98046.59
2023-05-22T04:27:44.045Z,98047.78
2023-05-22T04:28:46.117Z,98045.53
2023-05-22T04:29:48.207Z,98043.81
2023-05-22T04:30:49.822Z,98050.72
2023-05-22T04:31:54.486Z,98043.22
2023-05-22T04:32:57.333Z,98048.41
2023-05-22T04:34:00.462Z,98048.84
2023-05-22T04:35:08.574Z,98049.91
2023-05-22T04:36:12.386Z,98045.34
2023-05-22T04:37:17.287Z,98044.97
2023-05-22T04:38:20.991Z,98052.22
2023-05-22T04:39:22.566Z,98052.50
2023-05-22T04:40:24.066Z,98050.47
2023-05-22T04:41:26.748Z,98047.25
2023-05-22T04:42:28.692Z,98047.25
2023-05-22T04:43:32.391Z,98051.66
2023-05-22T04:44:34.490Z,98053.47
2023-05-22T04:45:39.323Z,98054.44
2023-05-22T04:46:42.432Z,98049.56
2023-05-22T04:47:44.504Z,98049.28
2023-05-22T04:48:47.223Z,98061.03
2023-05-22T04:49:49.003Z,98049.66
2023-05-22T04:50:50.630Z,98055.19
2023-05-22T04:51:54.053Z,98058.09
2023-05-22T04:52:55.752Z,98057.88
2023-05-22T04:53:58.509Z,98055.66
2023-05-22T04:55:01.137Z,98062.75
2023-05-22T04:56:03.533Z,98049.13
2023-05-22T04:57:05.369Z,98056.22
2023-05-22T04:58:07.105Z,98052.75
2023-05-22T04:59:09.488Z,98048.59
2023-05-22T05:00:12.852Z,98050.50
2023-05-22T05:01:14.472Z,98055.84
2023-05-22T05:02:16.083Z,98055.91
2023-05-22T05:03:17.710Z,98053.09
2023-05-22T05:04:19.286Z,98052.69
2023-05-22T05:05:21.104Z,98054.50
2023-05-22T05:06:22.667Z,98057.19
2023-05-22T05:07:25.240Z,98059.81
2023-05-22T05:08:26.832Z,98050.56
2023-05-22T05:09:28.313Z,98057.75
2023-05-22T05:10:29.892Z,98058.44
2023-05-22T05:11:31.421Z,98048.94
2023-05-22T05:12:32.945Z,98052.41
2023-05-22T05:13:34.449Z,98050.78
2023-05-22T05:14:35.902Z,98050.47
2023-05-22T05:15:37.404Z,98058.78
2023-05-22T05:16:38.944Z,98056.81
2023-05-22T05:17:41.137Z,98052.53
2023-05-22T05:18:42.675Z,98049.09
2023-05-22T05:19:44.771Z,98054.47
2023-05-22T05:20:46.523Z,98054.13
2023-05-22T05:21:49.687Z,98052.09
2023-05-22T05:22:51.459Z,98053.22
2023-05-22T05:23:52.972Z,98047.72
2023-05-22T05:24:54.486Z,98046.94
2023-05-22T05:25:56.130Z,98050.06
2023-05-22T05:26:57.644Z,98047.44
2023-05-22T05:27:59.117Z,98050.00
2023-05-22T05:29:04.606Z,98047.59
2023-05-22T05:30:13.757Z,98051.03
2023-05-22T05:31:15.550Z,98056.88
2023-05-22T05:32:17.836Z,98055.31
2023-05-22T05:33:19.904Z,98058.84
2023-05-22T05:34:21.412Z,98059.59
2023-05-22T05:35:22.861Z,98059.59
2023-05-22T05:36:25.207Z,98060.19
2023-05-22T05:37:27.098Z,98063.16
2023-05-22T05:38:28.582Z,98063.22
2023-05-22T05:39:30.051Z,98059.44
2023-05-22T05:40:31.517Z,98061.31
2023-05-22T05:41:32.989Z,98059.34
2023-05-22T05:42:34.448Z,98056.31
2023-05-22T05:43:35.907Z,98060.84
2023-05-22T05:44:37.656Z,98057.66
2023-05-22T05:45:39.228Z,98061.84
2023-05-22T05:46:40.778Z,98058.38
2023-05-22T05:47:42.388Z,98054.88
2023-05-22T05:48:44.040Z,98056.38
2023-05-22T05:49:45.622Z,98057.16
2023-05-22T05:50:47.121Z,98063.09
2023-05-22T05:51:48.807Z,98062.91
2023-05-22T05:52:50.541Z,98062.09
2023-05-22T05:53:52.336Z,98068.94
2023-05-22T05:54:53.948Z,98067.72
2023-05-22T05:55:56.060Z,98066.91
2023-05-22T05:56:57.529Z,98066.16
2023-05-22T05:57:59.007Z,98065.38
2023-05-22T05:59:00.469Z,98071.50
2023-05-22T06:00:01.985Z,98061.31
2023-05-22T06:01:04.265Z,98068.41
2023-05-22T06:02:06.484Z,98062.19
2023-05-22T06:03:08.150Z,98062.50
2023-05-22T06:04:09.771Z,98068.22
2023-05-22T06:05:11.638Z,98062.56
2023-05-22T06:06:14.138Z,98067.53
2023-05-22T06:07:16.381Z,98069.75
2023-05-22T06:08:19.817Z,98067.41
2023-05-22T06:09:21.467Z,98067.81
2023-05-22T06:10:23.118Z,98069.25
2023-05-22T06:11:24.671Z,98063.16
2023-05-22T06:12:26.234Z,98066.59
2023-05-22T06:13:27.742Z,98059.94
2023-05-22T06:14:29.218Z,98071.50
2023-05-22T06:15:31.802Z,98074.69
2023-05-22T06:16:33.411Z,98074.19
2023-05-22T06:17:37.195Z,98071.09
2023-05-22T06:18:38.818Z,98068.47
2023-05-22T06:19:41.039Z,98066.50
2023-05-22T06:20:43.162Z,98065.75
2023-05-22T06:21:44.665Z,98069.41
2023-05-22T06:22:46.699Z,98067.84
2023-05-22T06:23:49.830Z,98067.84
2023-05-22T06:24:54.342Z,98068.53
2023-05-22T06:25:55.956Z,98068.09
2023-05-22T06:26:57.599Z,98068.03
2023-05-22T06:27:59.055Z,98065.44
2023-05-22T06:29:00.899Z,98069.88
2023-05-22T06:30:04.606Z,98063.94
2023-05-22T06:31:07.127Z,98061.78
2023-05-22T06:32:08.897Z,98068.22
2023-05-22T06:33:14.592Z,98061.94
2023-05-22T06:34:16.275Z,98063.34
2023-05-22T06:35:18.506Z,98062.44
2023-05-22T06:36:20.128Z,98064.69
2023-05-22T06:37:21.685Z,98068.53
2023-05-22T06:38:23.157Z,98067.13
2023-05-22T06:39:26.832Z,98060.06
2023-05-22T06:40:28.488Z,98066.00
2023-05-22T06:41:30.013Z,98061.13
2023-05-22T06:42:32.859Z,98053.53
2023-05-22T06:43:34.334Z,98058.53
2023-05-22T06:44:38.461Z,98056.00
2023-05-22T06:45:43.250Z,98060.22
2023-05-22T06:46:45.636Z,98059.78
2023-05-22T06:47:48.285Z,98059.84
2023-05-22T06:48:50.081Z,98061.75
2023-05-22T06:49:51.641Z,98057.88
2023-05-22T06:51:13.225Z,98058.84
2023-05-22T06:52:54.458Z,98056.06
2023-05-22T06:54:06.143Z,98064.53
2023-05-22T06:55:08.127Z,98054.88
2023-05-22T06:56:09.970Z,98053.59
2023-05-22T06:59:06.408Z,98057.59
2023-05-22T07:04:33.630Z,98066.22
2023-05-22T07:11:10.453Z,98072.81
2023-05-22T07:12:39.255Z,98070.44
2023-05-22T07:14:00.301Z,98071.22
2023-05-22T07:15:07.380Z,98080.75
2023-05-22T07:16:26.821Z,98078.91
2023-05-22T07:17:31.913Z,98078.72
2023-05-22T07:18:33.998Z,98084.41
2023-05-22T07:19:36.058Z,98080.91
2023-05-22T07:20:37.966Z,98076.88
2023-05-22T07:21:40.016Z,98078.09
2023-05-22T07:22:41.566Z,98083.88
2023-05-22T07:23:43.150Z,98080.47
2023-05-22T07:24:44.805Z,98081.97
2023-05-22T07:25:47.511Z,98079.63
2023-05-22T07:26:49.521Z,98077.41
2023-05-22T07:27:51.285Z,98085.81
2023-05-22T07:28:52.783Z,98081.53
2023-05-22T07:29:54.582Z,98084.28
2023-05-22T07:30:56.491Z,98088.00
2023-05-22T07:31:58.392Z,98085.00
2023-05-22T07:32:59.963Z,98080.31
2023-05-22T07:34:01.595Z,98081.19
2023-05-22T07:35:03.334Z,98085.53
2023-05-22T07:36:05.655Z,98085.69
2023-05-22T07:37:12.642Z,98094.81
2023-05-22T07:38:14.508Z,98094.75
2023-05-22T07:39:16.226Z,98095.22
2023-05-22T07:40:18.233Z,98090.19
2023-05-22T07:41:19.823Z,98079.84
2023-05-22T07:42:23.992Z,98091.06
2023-05-22T07:43:25.667Z,98083.56
2023-05-22T07:44:27.191Z,98088.56
2023-05-22T07:45:28.929Z,98081.72
2023-05-22T07:46:30.587Z,98080.69
2023-05-22T07:47:32.181Z,98083.41
2023-05-22T07:48:33.855Z,98086.97
2023-05-22T07:49:35.677Z,98079.63
2023-05-22T07:50:37.756Z,98087.88
2023-05-22T07:51:41.132Z,98086.72
2023-05-22T07:52:42.691Z,98083.88
2023-05-22T07:53:44.568Z,98072.00
2023-05-22T07:54:46.445Z,98075.00
2023-05-22T07:55:48.207Z,98077.00
2023-05-22T07:56:50.088Z,98070.44
2023-05-22T07:57:52.850Z,98069.50
2023-05-22T07:58:54.347Z,98068.88
2023-05-22T07:59:56.940Z,98069.38
2023-05-22T08:00:58.564Z,98070.16
2023-05-22T08:02:00.154Z,98066.50
2023-05-22T08:03:02.109Z,98063.31
2023-05-22T08:04:06.965Z,98065.28
2023-05-22T08:05:09.929Z,98072.97
2023-05-22T08:06:12.941Z,98062.28
2023-05-22T08:07:14.556Z,98064.22
2023-05-22T08:08:16.110Z,98073.72
2023-05-22T08:09:17.678Z,98069.22
2023-05-22T08:10:37.208Z,98082.28
2023-05-22T08:11:48.753Z,98070.81
2023-05-22T08:12:50.694Z,98082.56
2023-05-22T08:13:52.360Z,98076.69
2023-05-22T08:14:54.374Z,98072.34
2023-05-22T08:16:00.433Z,98074.94
2023-05-22T08:17:02.666Z,98080.06
2023-05-22T08:18:12.648Z,98075.56
2023-05-22T08:19:14.667Z,98068.03
2023-05-22T08:20:16.691Z,98071.38
2023-05-22T08:21:18.768Z,98071.63
2023-05-22T08:22:20.662Z,98074.38
2023-05-22T08:23:22.263Z,98070.31
2023-05-22T08:24:28.908Z,98072.94
2023-05-22T08:25:30.500Z,98079.16
2023-05-22T08:26:33.875Z,98073.38
2023-05-22T08:27:35.778Z,98075.69
2023-05-22T08:28:42.102Z,98067.91
2023-05-22T08:29:43.623Z,98069.97
2023-05-22T08:30:45.186Z,98070.31
2023-05-22T08:31:46.902Z,98070.59
2023-05-22T08:32:48.525Z,98072.53
2023-05-22T08:33:50.147Z,98068.47
2023-05-22T08:34:51.934Z,98068.97
2023-05-22T08:35:53.564Z,98062.44
2023-05-22T08:36:59.244Z,98062.13
2023-05-22T08:38:00.772Z,98060.88
2023-05-22T08:39:02.846Z,98059.25
2023-05-22T08:40:05.561Z,98060.69
2023-05-22T08:41:08.266Z,98058.56
2023-05-22T08:42:09.946Z,98064.22
2023-05-22T08:43:11.670Z,98056.31
2023-05-22T08:44:14.157Z,98055.25
2023-05-22T08:45:16.295Z,98059.47
2023-05-22T08:46:20.116Z,98051.34
2023-05-22T08:47:26.187Z,98050.31
2023-05-22T08:48:32.098Z,98050.44
2023-05-22T08:49:34.011Z,98046.03
2023-05-22T08:50:41.720Z,98050.88
2023-05-22T08:51:48.070Z,98044.03
2023-05-22T08:52:57.332Z,98051.56
2023-05-22T08:53:59.666Z,98043.38
2023-05-22T08:55:05.462Z,98042.66
2023-05-22T08:56:08.595Z,98038.53
2023-05-22T08:57:10.851Z,98040.25
2023-05-22T08:58:12.548Z,98041.94
2023-05-22T08:59:14.089Z,98034.50
2023-05-22T09:00:16.996Z,98037.22
2023-05-22T09:01:19.245Z,98038.06
2023-05-22T09:02:21.718Z,98038.75
2023-05-22T09:03:23.593Z,98027.44
2023-05-22T09:04:25.705Z,98029.63
2023-05-22T09:05:27.380Z,98029.19
2023-05-22T09:06:32.139Z,98035.94
2023-05-22T09:07:33.656Z,98032.81
2023-05-22T09:08:35.592Z,98034.03
2023-05-22T09:09:40.795Z,98036.34
2023-05-22T09:10:42.325Z,98029.16
2023-05-22T09:11:44.267Z,98028.53
2023-05-22T09:13:04.210Z,98030.31
2023-05-22T09:14:10.175Z,98028.72
2023-05-22T09:15:12.256Z,98024.88
2023-05-22T09:16:14.905Z,98024.00
2023-05-22T09:17:17.105Z,98015.41
2023-05-22T09:18:18.710Z,98020.94
2023-05-22T09:19:20.596Z,98019.00
2023-05-22T09:20:22.505Z,98018.91
2023-05-22T09:21:30.238Z,98020.88
2023-05-22T09:22:39.709Z,98019.19
2023-05-22T09:23:42.067Z,98018.75
2023-05-22T09:24:47.078Z,98017.44
2023-05-22T09:25:49.087Z,98022.19
2023-05-22T09:26:52.563Z,98010.81
2023-05-22T09:27:54.225Z,98024.81
2023-05-22T09:28:57.418Z,98020.88
2023-05-22T09:29:58.998Z,98021.31
2023-05-22T09:31:03.791Z,98022.44
2023-05-22T09:32:13.713Z,98017.22
2023-05-22T09:33:17.139Z,98015.38
2023-05-22T09:34:19.127Z,98014.34
2023-05-22T09:35:20.998Z,98016.00
2023-05-22T09:36:23.075Z,98016.88
2023-05-22T09:37:28.555Z,98012.75
2023-05-22T09:38:30.762Z,98021.88
2023-05-22T09:39:40.424Z,98018.00
2023-05-22T09:40:42.324Z,98015.34
2023-05-22T09:41:44.427Z,98019.66
2023-05-22T09:42:46.033Z,98018.16
2023-05-22T09:43:51.460Z,98016.78
2023-05-22T09:44:53.071Z,98011.06
2023-05-22T09:46:01.016Z,98014.63
2023-05-22T09:47:03.478Z,98009.09
2023-05-22T09:48:09.432Z,98013.81
2023-05-22T09:49:14.146Z,98017.84
2023-05-22T09:50:18.549Z,98010.22
2023-05-22T09:51:26.689Z,98015.88
2023-05-22T09:52:29.042Z,98017.19
2023-05-22T09:53:33.272Z,98011.50
2023-05-22T09:54:35.534Z,98007.13
2023-05-22T09:55:37.989Z,98010.59
2023-05-22T09:56:40.915Z,98008.13
2023-05-22T09:57:44.594Z,98020.53
2023-05-22T09:58:48.166Z,98015.56
2023-05-22T09:59:54.977Z,98015.59
2023-05-22T10:00:57.640Z,98007.84
2023-05-22T10:02:02.000Z,98003.66
2023-05-22T10:03:09.601Z,98000.69
2023-05-22T10:04:16.057Z,98005.94
2023-05-22T10:05:22.066Z,97998.47
2023-05-22T10:06:25.359Z,98003.81
2023-05-22T10:07:46.627Z,97987.81
2023-05-22T10:08:53.277Z,97997.34
2023-05-22T10:10:04.584Z,97999.97
2023-05-22T10:11:06.514Z,97996.03
2023-05-22T10:12:10.413Z,97991.84
2023-05-22T10:13:12.349Z,97994.25
2023-05-22T10:14:15.234Z,97992.81
2023-05-22T10:15:18.843Z,97996.28
2023-05-22T10:16:22.154Z,97995.53
2023-05-22T10:17:24.890Z,97990.22
2023-05-22T10:18:27.193Z,97997.31
2023-05-22T10:19:31.286Z,97996.16
2023-05-22T10:20:33.155Z,97991.88
2023-05-22T10:21:36.836Z,97983.88
2023-05-22T10:22:39.020Z,97987.78
2023-05-22T10:23:41.637Z,97990.78
2023-05-22T10:24:43.679Z,97989.28
2023-05-22T10:25:45.933Z,97989.34
2023-05-22T10:26:47.739Z,97988.88
2023-05-22T10:27:52.761Z,97982.19
2023-05-22T10:29:07.397Z,97981.91
2023-05-22T10:30:11.634Z,97982.16
2023-05-22T10:31:32.679Z,97976.72
2023-05-22T10:32:42.911Z,97989.38
2023-05-22T10:33:50.405Z,97987.09
2023-05-22T10:35:01.978Z,97976.22
2023-05-22T10:36:28.534Z,97979.91
2023-05-22T10:37:44.639Z,97982.34
2023-05-22T10:39:17.266Z,97985.22
2023-05-22T10:40:30.407Z,97977.94
2023-05-22T10:41:32.219Z,97978.50
2023-05-22T10:42:34.262Z,97982.97
2023-05-22T10:43:42.858Z,97982.78
2023-05-22T10:44:44.537Z,97982.31
2023-05-22T10:45:46.954Z,97982.72
2023-05-22T10:46:50.848Z,97979.66
2023-05-22T10:48:06.368Z,97976.75
2023-05-22T10:49:09.249Z,97980.72
2023-05-22T10:50:12.154Z,97978.72
2023-05-22T10:51:16.179Z,97977.13
2023-05-22T10:52:21.951Z,97973.72
2023-05-22T10:53:32.391Z,97971.50
2023-05-22T10:54:45.653Z,97974.13
2023-05-22T10:55:58.378Z,97971.88
2023-05-22T10:57:10.165Z,97969.63
2023-05-22T10:58:16.637Z,97971.66
2023-05-22T10:59:18.299Z,97962.81
2023-05-22T11:00:24.200Z,97961.53
2023-05-22T11:01:26.720Z,97965.69
2023-05-22T11:02:29.966Z,97961.13
2023-05-22T11:04:00.889Z,97973.06
2023-05-22T11:05:25.863Z,97965.88
2023-05-22T11:06:35.260Z,97962.91
2023-05-22T11:07:42.796Z,97958.44
2023-05-22T11:08:47.036Z,97958.44
2023-05-22T11:09:48.797Z,97954.50
2023-05-22T11:10:55.860Z,97954.00
2023-05-22T11:12:24.651Z,97951.50
2023-05-22T11:13:29.042Z,97959.34
2023-05-22T11:14:31.794Z,97946.47
2023-05-22T11:15:33.443Z,97945.22
2023-05-22T11:16:37.455Z,97946.69
2023-05-22T11:17:45.229Z,97951.91
2023-05-22T11:18:47.386Z,97948.16
2023-05-22T11:20:24.879Z,97954.63
2023-05-22T11:21:29.491Z,97959.56
2023-05-22T11:22:31.810Z,97953.38
2023-05-22T11:23:34.634Z,97957.97
2023-05-22T11:24:37.941Z,97953.28
2023-05-22T11:25:41.460Z,97945.25
2023-05-22T11:26:43.217Z,97944.41
2023-05-22T11:27:45.460Z,97951.81
2023-05-22T11:28:50.509Z,97946.69
2023-05-22T11:29:52.748Z,97943.69
2023-05-22T11:30:54.445Z,97951.34
2023-05-22T11:31:57.915Z,97949.53
2023-05-22T11:33:00.598Z,97950.56
2023-05-22T11:34:02.396Z,97945.16
2023-05-22T11:35:05.477Z,97941.81
2023-05-22T11:36:09.009Z,97952.25
2023-05-22T11:37:10.903Z,97950.56
2023-05-22T11:38:12.634Z,97944.09
2023-05-22T11:39:17.263Z,97937.34
2023-05-22T11:40:21.272Z,97943.59
2023-05-22T11:41:22.817Z,97947.78
2023-05-22T11:42:25.106Z,97948.66
2023-05-22T11:43:31.526Z,97942.34
2023-05-22T11:44:33.085Z,97938.53
2023-05-22T11:45:38.224Z,97942.50
2023-05-22T11:46:40.375Z,97942.00
2023-05-22T11:47:42.738Z,97937.91
2023-05-22T11:48:44.545Z,97944.84
2023-05-22T11:49:46.346Z,97938.34
2023-05-22T11:50:48.598Z,97937.41
2023-05-22T11:51:51.931Z,97931.97
2023-05-22T11:52:54.114Z,97935.22
2023-05-22T11:53:57.374Z,97930.06
2023-05-22T11:54:59.471Z,97938.28
2023-05-22T11:56:05.631Z,97935.94
2023-05-22T11:57:09.271Z,97928.63
2023-05-22T11:58:10.839Z,97931.72
2023-05-22T11:59:12.451Z,97931.00
2023-05-22T12:00:14.737Z,97939.22
2023-05-22T12:01:16.492Z,97925.78
2023-05-22T12:02:19.310Z,97932.34
2023-05-22T12:03:20.939Z,97923.41
2023-05-22T12:04:23.424Z,97927.81
2023-05-22T12:05:25.122Z,97912.03
2023-05-22T12:06:26.836Z,97925.50
2023-05-22T12:07:28.753Z,97925.75
2023-05-22T12:08:30.732Z,97915.03
2023-05-22T12:09:32.343Z,97922.47
2023-05-22T12:10:33.864Z,97918.19
2023-05-22T12:11:36.493Z,97921.97
2023-05-22T12:12:38.357Z,97928.38
2023-05-22T12:13:40.024Z,97927.66
2023-05-22T12:14:44.837Z,97915.25
2023-05-22T12:15:46.477Z,97916.94
2023-05-22T12:16:52.359Z,97917.78
2023-05-22T12:17:57.266Z,97906.88
2023-05-22T12:18:59.021Z,97909.97
2023-05-22T12:20:00.633Z,97910.84
2023-05-22T12:21:02.169Z,97907.88
2023-05-22T12:22:04.932Z,97914.88
2023-05-22T12:23:11.781Z,97909.94
2023-05-22T12:24:13.416Z,97911.13
2023-05-22T12:25:18.236Z,97906.72
2023-05-22T12:26:20.487Z,97901.81
2023-05-22T12:27:22.005Z,97901.59
2023-05-22T12:28:23.962Z,97907.22
2023-05-22T12:29:25.780Z,97904.09
2023-05-22T12:30:27.825Z,97904.97
2023-05-22T12:31:35.941Z,97907.91
2023-05-22T12:32:39.573Z,97915.53
2023-05-22T12:33:41.130Z,97915.13
2023-05-22T12:34:47.214Z,97908.22
2023-05-22T12:35:52.311Z,97915.28
2023-05-22T12:36:53.901Z,97905.78
2023-05-22T12:37:55.551Z,97904.25
2023-05-22T12:38:58.054Z,97908.59
2023-05-22T12:40:01.618Z,97909.75
2023-05-22T12:41:03.156Z,97902.22
2023-05-22T12:42:04.895Z,97900.38
2023-05-22T12:43:06.513Z,97901.69
2023-05-22T12:44:08.570Z,97901.53
2023-05-22T12:45:11.682Z,97898.66